Time;durP1;ratioP1;P1;durP2;ratioP2;P2;SDS_P1;SDS_P2;PMS_P1;PMS_P2;Temp;Humidity;BMP_temperature;BMP_pressure;BME280_temperature;BME280_humidity;BME280_pressure;Samples;Min_cycle;Max_cycle;Signal;HPM_P1;HPM_P2
2023/08/16 00:00:53;;;;;;;;;;;;;;;16.71;52.89;95859.28;5018887;28;19964;-68
2023/08/16 00:03:18;;;;;;;;;;;;;;;16.72;53.21;95860.91;5018259;28;19968;-68
2023/08/16 00:05:44;;;;;;;;;;;;;;;16.73;53.13;95859.88;5018768;28;19927;-68
2023/08/16 00:08:09;;;;;;;;;;;;;;;16.78;53.10;95859.25;5020043;28;20027;-69
2023/08/16 00:10:34;;;;;;;;;;;;;;;16.79;52.74;95860.88;5019713;28;19960;-68
2023/08/16 00:13:00;;;;;;;;;;;;;;;16.79;53.40;95860.09;5013587;28;20043;-68
2023/08/16 00:15:25;;;;;;;;;;;;;;;16.83;53.07;95864.00;5019677;28;19924;-68
2023/08/16 00:17:50;;;;;;;;;;;;;;;16.89;52.08;95855.06;5018363;28;19980;-68
2023/08/16 00:20:17;;;;;;;;;;;;;;;16.69;53.33;95864.03;5019670;28;19960;-68
2023/08/16 00:22:42;;;;;;;;;;;;;;;16.66;53.62;95861.78;5019056;28;19979;-68
2023/08/16 00:25:08;;;;;;;;;;;;;;;16.67;53.34;95858.03;5018559;28;19933;-68
2023/08/16 00:27:33;;;;;;;;;;;;;;;16.71;53.56;95848.53;5017885;28;19929;-68
2023/08/16 00:29:58;;;;;;;;;;;;;;;16.74;53.32;95845.41;5018909;28;19925;-68
2023/08/16 00:32:24;;;;;;;;;;;;;;;16.76;53.44;95846.00;5016803;28;19939;-68
2023/08/16 00:34:49;;;;;;;;;;;;;;;16.78;52.84;95843.13;5018976;28;20593;-68
2023/08/16 00:37:14;;;;;;;;;;;;;;;16.80;53.07;95851.81;5017896;28;19921;-68
2023/08/16 00:39:39;;;;;;;;;;;;;;;16.76;53.13;95846.00;5018880;28;19921;-68
2023/08/16 00:42:05;;;;;;;;;;;;;;;16.76;53.04;95839.84;5018370;28;20011;-68
2023/08/16 00:44:30;;;;;;;;;;;;;;;16.78;52.75;95843.13;5018851;28;19931;-68
2023/08/16 00:46:55;;;;;;;;;;;;;;;16.75;52.96;95838.16;5017303;28;20011;-68
2023/08/16 00:49:20;;;;;;;;;;;;;;;16.75;53.28;95847.06;5018509;28;19932;-68
2023/08/16 00:51:46;;;;;;;;;;;;;;;16.77;53.00;95844.16;5018253;28;19980;-68
2023/08/16 00:54:11;;;;;;;;;;;;;;;16.81;53.31;95842.69;5012827;28;20045;-68
2023/08/16 00:56:36;;;;;;;;;;;;;;;16.79;53.00;95844.75;5018140;28;20396;-68
2023/08/16 00:59:01;;;;;;;;;;;;;;;16.80;53.08;95842.91;5011925;28;19925;-68
2023/08/16 01:01:27;;;;;;;;;;;;;;;16.77;52.71;95839.59;5013863;22;19930;-64
2023/08/16 01:03:52;;;;;;;;;;;;;;;16.76;52.64;95835.25;4981625;28;19929;-64
2023/08/16 01:06:17;;;;;;;;;;;;;;;16.73;52.42;95827.63;4976089;28;19926;-65
2023/08/16 01:08:42;;;;;;;;;;;;;;;16.68;52.24;95832.81;4978462;28;20628;-64
2023/08/16 01:11:40;;;;;;;;;;;;;;;16.62;52.48;95831.78;4977998;28;19913;-64
2023/08/16 01:14:09;;;;;;;;;;;;;;;16.56;52.28;95838.03;4974358;28;20274;-64
2023/08/16 01:16:34;;;;;;;;;;;;;;;16.52;53.05;95834.91;4977536;28;19924;-64
2023/08/16 01:18:59;;;;;;;;;;;;;;;16.52;53.37;95834.09;4973458;28;19922;-65
2023/08/16 01:21:25;;;;;;;;;;;;;;;16.50;52.83;95841.56;4982234;28;19935;-64
2023/08/16 01:23:53;;;;;;;;;;;;;;;16.47;53.38;95845.50;4996185;28;19917;-64
2023/08/16 01:26:21;;;;;;;;;;;;;;;16.49;53.50;95848.78;4993006;28;19925;-64
2023/08/16 01:28:47;;;;;;;;;;;;;;;16.49;53.24;95847.97;4995110;28;20027;-64
2023/08/16 01:31:12;;;;;;;;;;;;;;;16.45;53.05;95844.06;4994224;28;20023;-64
2023/08/16 01:33:37;;;;;;;;;;;;;;;16.39;53.07;95846.53;4993564;28;20042;-64
2023/08/16 01:36:02;;;;;;;;;;;;;;;16.38;53.30;95844.03;4995799;28;19965;-64
2023/08/16 01:38:28;;;;;;;;;;;;;;;16.36;52.77;95846.94;4996818;28;20486;-64
2023/08/16 01:40:55;;;;;;;;;;;;;;;16.30;53.00;95850.44;4992144;28;19961;-64
2023/08/16 01:43:20;;;;;;;;;;;;;;;16.25;52.68;95859.13;4991363;28;20016;-64
2023/08/16 01:45:46;;;;;;;;;;;;;;;16.23;52.91;95852.31;4992167;28;19959;-64
2023/08/16 01:48:11;;;;;;;;;;;;;;;16.22;53.75;95856.84;4992242;28;20185;-65
2023/08/16 01:50:36;;;;;;;;;;;;;;;16.27;53.63;95850.84;4995218;28;20116;-65
2023/08/16 01:53:02;;;;;;;;;;;;;;;16.36;53.20;95854.19;4991776;28;20537;-65
2023/08/16 01:55:27;;;;;;;;;;;;;;;16.41;53.22;95854.38;4994569;28;19922;-64
2023/08/16 01:57:52;;;;;;;;;;;;;;;16.47;52.95;95853.53;4995723;28;19921;-64
2023/08/16 02:00:17;;;;;;;;;;;;;;;16.51;53.11;95849.41;4995929;28;20000;-64
2023/08/16 02:02:43;;;;;;;;;;;;;;;16.56;52.87;95851.47;4995277;28;19925;-65
2023/08/16 02:05:08;;;;;;;;;;;;;;;16.62;52.88;95855.16;4994454;28;19921;-65
2023/08/16 02:07:33;;;;;;;;;;;;;;;16.69;53.04;95850.59;4994100;28;19925;-64
2023/08/16 02:09:58;;;;;;;;;;;;;;;16.73;52.84;95846.44;5004972;28;19968;-64
2023/08/16 02:12:24;;;;;;;;;;;;;;;16.77;53.02;95836.91;5006588;28;19921;-64
2023/08/16 02:14:49;;;;;;;;;;;;;;;16.84;52.62;95842.28;4975498;28;19930;-65
2023/08/16 02:17:15;;;;;;;;;;;;;;;16.88;52.51;95839.97;4981057;28;19925;-64
2023/08/16 02:19:41;;;;;;;;;;;;;;;16.94;52.52;95843.69;4992774;28;19929;-65
2023/08/16 02:22:06;;;;;;;;;;;;;;;17.01;52.39;95849.84;4990870;28;19984;-65
2023/08/16 02:24:31;;;;;;;;;;;;;;;17.05;52.12;95842.16;4995033;28;19925;-64
2023/08/16 02:26:56;;;;;;;;;;;;;;;17.08;51.88;95841.75;4995312;28;19921;-62
2023/08/16 02:29:22;;;;;;;;;;;;;;;17.10;51.71;95842.38;4991841;28;19925;-64
2023/08/16 02:31:47;;;;;;;;;;;;;;;17.15;51.92;95850.66;4996195;28;20170;-64
2023/08/16 02:34:12;;;;;;;;;;;;;;;17.21;51.38;95854.34;4992660;28;19925;-65
2023/08/16 02:36:37;;;;;;;;;;;;;;;17.22;51.35;95847.91;4995961;28;20144;-64
2023/08/16 02:39:04;;;;;;;;;;;;;;;17.06;52.40;95846.53;4993482;28;20357;-65
2023/08/16 02:41:29;;;;;;;;;;;;;;;16.94;53.29;95847.19;4995169;28;20141;-65
2023/08/16 02:43:54;;;;;;;;;;;;;;;17.04;52.60;95841.38;5001559;28;20374;-65
2023/08/16 02:46:19;;;;;;;;;;;;;;;17.17;52.33;95839.69;4995261;28;20341;-65
2023/08/16 02:48:44;;;;;;;;;;;;;;;17.24;51.89;95846.66;4993249;28;19926;-65
2023/08/16 02:51:10;;;;;;;;;;;;;;;17.33;51.51;95846.44;4995371;28;20365;-65
2023/08/16 02:53:35;;;;;;;;;;;;;;;17.31;51.55;95846.63;4995521;28;19926;-64
2023/08/16 02:56:00;;;;;;;;;;;;;;;17.23;51.89;95844.22;4995545;28;19925;-65
2023/08/16 02:58:26;;;;;;;;;;;;;;;17.23;52.07;95850.41;4992697;28;20352;-64
2023/08/16 03:00:52;;;;;;;;;;;;;;;17.12;52.71;95848.38;4992537;28;19984;-65
2023/08/16 03:03:17;;;;;;;;;;;;;;;17.08;53.62;95855.19;4986910;28;19987;-64
2023/08/16 03:05:43;;;;;;;;;;;;;;;17.18;53.25;95844.00;5001667;28;19921;-65
2023/08/16 03:08:08;;;;;;;;;;;;;;;17.33;52.87;95849.13;5001794;28;19933;-65
2023/08/16 03:10:33;;;;;;;;;;;;;;;17.45;52.35;95844.69;5010633;28;19921;-65
2023/08/16 03:12:59;;;;;;;;;;;;;;;17.56;52.71;95848.56;5009379;28;20162;-65
2023/08/16 03:15:24;;;;;;;;;;;;;;;17.60;53.01;95854.31;4998526;28;19972;-65
2023/08/16 03:17:49;;;;;;;;;;;;;;;17.48;54.19;95844.28;4999356;28;20355;-64
2023/08/16 03:20:14;;;;;;;;;;;;;;;17.59;52.79;95844.59;4997276;28;19925;-64
2023/08/16 03:22:40;;;;;;;;;;;;;;;17.69;52.30;95850.34;4994290;28;19921;-65
2023/08/16 03:25:05;;;;;;;;;;;;;;;17.76;52.84;95845.72;4996400;28;20058;-64
2023/08/16 03:27:30;;;;;;;;;;;;;;;17.79;52.63;95841.75;4999836;28;19928;-65
2023/08/16 03:29:55;;;;;;;;;;;;;;;17.83;52.24;95852.91;4998252;28;19926;-64
2023/08/16 03:32:21;;;;;;;;;;;;;;;17.87;51.72;95857.69;4999716;28;19921;-65
2023/08/16 03:34:46;;;;;;;;;;;;;;;17.91;51.62;95858.06;4998761;28;20000;-65
2023/08/16 03:37:11;;;;;;;;;;;;;;;17.91;51.40;95852.66;4998923;28;19960;-65
2023/08/16 03:39:36;;;;;;;;;;;;;;;17.90;52.57;95848.34;4992233;28;19929;-65
2023/08/16 03:42:02;;;;;;;;;;;;;;;17.65;54.05;95851.81;5008735;28;19924;-64
2023/08/16 03:44:27;;;;;;;;;;;;;;;17.44;54.74;95844.91;5003245;28;19928;-65
2023/08/16 03:46:52;;;;;;;;;;;;;;;17.58;52.74;95851.88;5016672;28;19968;-65
2023/08/16 03:49:17;;;;;;;;;;;;;;;17.71;52.63;95852.81;5002594;28;20486;-65
2023/08/16 03:51:43;;;;;;;;;;;;;;;17.83;51.84;95850.22;4978661;28;19922;-65
2023/08/16 03:54:08;;;;;;;;;;;;;;;17.85;52.35;95850.84;4973928;28;20181;-64
2023/08/16 03:56:33;;;;;;;;;;;;;;;17.89;51.88;95855.59;4984606;28;20290;-66
2023/08/16 03:58:58;;;;;;;;;;;;;;;17.93;51.71;95850.59;4983785;28;19952;-64
2023/08/16 04:01:24;;;;;;;;;;;;;;;17.94;50.88;95860.31;4980401;28;19965;-64
2023/08/16 04:03:49;;;;;;;;;;;;;;;17.96;50.75;95855.53;4978756;28;20603;-64
2023/08/16 04:06:15;;;;;;;;;;;;;;;17.95;51.37;95847.69;4978735;28;19925;-65
2023/08/16 04:08:41;;;;;;;;;;;;;;;17.93;50.80;95847.91;4974658;28;20382;-64
2023/08/16 04:11:06;;;;;;;;;;;;;;;17.90;50.27;95840.25;4998031;28;19956;-64
2023/08/16 04:13:31;;;;;;;;;;;;;;;17.86;50.48;95844.44;5004507;28;19947;-65
2023/08/16 04:15:57;;;;;;;;;;;;;;;17.77;50.47;95836.59;5003284;28;20031;-65
2023/08/16 04:18:22;;;;;;;;;;;;;;;17.70;50.98;95838.50;5014808;28;20405;-64
2023/08/16 04:20:47;;;;;;;;;;;;;;;17.64;51.12;95842.91;4992512;28;20323;-65
2023/08/16 04:23:13;;;;;;;;;;;;;;;17.62;50.81;95838.78;4978670;28;19976;-64
2023/08/16 04:25:38;;;;;;;;;;;;;;;17.62;51.07;95838.78;4982608;28;19932;-65
2023/08/16 04:28:03;;;;;;;;;;;;;;;17.44;52.18;95834.94;4998584;28;20171;-65
2023/08/16 04:30:29;;;;;;;;;;;;;;;17.38;52.04;95828.56;4997303;28;19925;-64
2023/08/16 04:32:54;;;;;;;;;;;;;;;17.32;53.25;95840.22;4999871;28;20075;-65
2023/08/16 04:35:19;;;;;;;;;;;;;;;17.35;52.65;95847.03;5009605;28;19964;-64
2023/08/16 04:37:44;;;;;;;;;;;;;;;17.35;51.89;95842.47;5001487;28;19988;-65
2023/08/16 04:40:10;;;;;;;;;;;;;;;17.38;51.97;95836.63;4994957;28;20014;-65
2023/08/16 04:42:35;;;;;;;;;;;;;;;17.42;51.48;95845.13;5006089;28;19925;-65
2023/08/16 04:45:01;;;;;;;;;;;;;;;17.43;51.79;95844.06;5001935;28;19922;-65
2023/08/16 04:47:27;;;;;;;;;;;;;;;17.43;51.33;95841.38;4996279;28;20116;-65
2023/08/16 04:49:52;;;;;;;;;;;;;;;17.43;51.49;95840.56;4995790;28;20014;-64
2023/08/16 04:52:17;;;;;;;;;;;;;;;17.41;52.20;95841.59;4998888;28;19961;-64
2023/08/16 04:54:42;;;;;;;;;;;;;;;17.32;52.35;95855.53;4986850;28;19926;-64
2023/08/16 04:57:08;;;;;;;;;;;;;;;17.30;51.89;95857.63;4982436;28;20284;-65
2023/08/16 04:59:33;;;;;;;;;;;;;;;17.30;52.57;95858.41;4977125;28;20282;-65
2023/08/16 05:01:58;;;;;;;;;;;;;;;17.31;52.99;95862.78;4976096;28;20049;-65
2023/08/16 05:04:23;;;;;;;;;;;;;;;17.37;52.56;95869.19;4973659;28;20008;-65
2023/08/16 05:06:48;;;;;;;;;;;;;;;17.38;52.65;95870.81;4994855;28;19972;-65
2023/08/16 05:09:14;;;;;;;;;;;;;;;17.42;52.61;95880.09;4993801;28;20689;-64
2023/08/16 05:11:39;;;;;;;;;;;;;;;17.48;52.73;95884.63;4995348;28;20595;-65
2023/08/16 05:14:04;;;;;;;;;;;;;;;17.53;51.62;95887.50;5004508;28;19921;-65
2023/08/16 05:16:29;;;;;;;;;;;;;;;17.63;52.61;95891.56;5002545;28;19929;-64
2023/08/16 05:18:57;;;;;;;;;;;;;;;17.67;52.29;95890.94;4982783;28;19973;-64
2023/08/16 05:21:22;;;;;;;;;;;;;;;17.76;52.01;95887.97;4973090;28;20127;-65
2023/08/16 05:23:47;;;;;;;;;;;;;;;17.78;52.03;95885.91;4977569;28;20676;-65
2023/08/16 05:26:12;;;;;;;;;;;;;;;17.85;52.19;95892.06;4974844;28;19937;-65
2023/08/16 05:28:38;;;;;;;;;;;;;;;17.92;51.49;95890.16;4977169;28;19929;-65
2023/08/16 05:31:09;;;;;;;;;;;;;;;18.01;50.07;95893.41;4994214;28;20004;-65
2023/08/16 05:33:35;;;;;;;;;;;;;;;18.05;50.27;95894.63;4999517;28;20012;-64
2023/08/16 05:36:00;;;;;;;;;;;;;;;18.12;50.31;95894.56;5005604;28;19921;-62
2023/08/16 05:38:25;;;;;;;;;;;;;;;18.18;50.74;95882.06;5007962;28;19957;-62
2023/08/16 05:40:51;;;;;;;;;;;;;;;18.25;50.45;95882.03;4997746;28;20120;-62
2023/08/16 05:43:16;;;;;;;;;;;;;;;18.31;50.93;95889.22;4996356;28;19991;-62
2023/08/16 05:45:41;;;;;;;;;;;;;;;18.39;49.50;95888.13;4994186;28;19925;-62
2023/08/16 05:48:06;;;;;;;;;;;;;;;18.38;50.70;95890.00;4996778;28;19969;-62
2023/08/16 05:50:31;;;;;;;;;;;;;;;18.44;49.74;95889.13;4998155;28;20403;-61
2023/08/16 05:52:57;;;;;;;;;;;;;;;18.61;49.80;95893.13;4996020;28;20302;-61
2023/08/16 05:55:22;;;;;;;;;;;;;;;18.71;49.99;95887.22;4974119;28;20195;-61
2023/08/16 05:57:47;;;;;;;;;;;;;;;18.79;48.76;95879.66;4985114;28;20461;-62
2023/08/16 06:00:13;;;;;;;;;;;;;;;18.92;51.21;95891.34;4992410;28;19921;-64
2023/08/16 06:02:38;;;;;;;;;;;;;;;19.06;50.88;95895.53;4995748;28;20222;-64
2023/08/16 06:05:04;;;;;;;;;;;;;;;19.25;49.90;95887.44;4993804;28;20394;-64
2023/08/16 06:07:30;;;;;;;;;;;;;;;19.48;49.26;95880.53;4993185;28;20013;-64
2023/08/16 06:09:55;;;;;;;;;;;;;;;19.64;49.27;95884.44;4994333;28;20356;-64
2023/08/16 06:12:20;;;;;;;;;;;;;;;19.77;48.65;95890.69;4995078;28;19944;-65
2023/08/16 06:14:45;;;;;;;;;;;;;;;19.84;46.63;95883.31;4992126;28;20081;-65
2023/08/16 06:17:11;;;;;;;;;;;;;;;19.96;46.74;95889.59;4995809;28;20600;-64
2023/08/16 06:19:36;;;;;;;;;;;;;;;20.10;47.58;95892.09;4994360;28;20600;-65
2023/08/16 06:22:02;;;;;;;;;;;;;;;20.28;48.00;95893.03;4990029;28;19931;-65
2023/08/16 06:24:31;;;;;;;;;;;;;;;20.45;47.18;95901.28;4995294;28;20860;-64
2023/08/16 06:26:56;;;;;;;;;;;;;;;20.66;47.43;95904.50;4991733;28;20116;-64
2023/08/16 06:29:21;;;;;;;;;;;;;;;20.78;46.98;95907.19;4995839;28;20509;-64
2023/08/16 06:31:48;;;;;;;;;;;;;;;20.84;47.12;95908.94;4992445;28;19952;-64
2023/08/16 06:34:13;;;;;;;;;;;;;;;21.02;46.40;95907.97;4994855;28;19976;-63
2023/08/16 06:36:38;;;;;;;;;;;;;;;21.08;45.00;95914.31;4991359;28;20008;-62
2023/08/16 06:39:04;;;;;;;;;;;;;;;21.16;46.09;95915.81;4991193;28;19922;-61
2023/08/16 06:41:29;;;;;;;;;;;;;;;21.38;44.68;95916.00;4994812;28;19972;-62
2023/08/16 06:43:54;;;;;;;;;;;;;;;21.30;41.91;95917.22;4991685;28;20004;-65
2023/08/16 06:46:20;;;;;;;;;;;;;;;21.20;41.83;95914.28;4994550;28;20487;-65
2023/08/16 06:48:47;;;;;;;;;;;;;;;21.19;42.54;95916.19;4995837;28;19922;-64
2023/08/16 06:51:12;;;;;;;;;;;;;;;21.27;43.35;95908.75;4993754;28;20333;-65
2023/08/16 06:53:39;;;;;;;;;;;;;;;21.30;44.83;95898.28;4987604;28;19936;-65
2023/08/16 06:56:04;;;;;;;;;;;;;;;21.36;44.40;95881.09;4986631;28;19930;-63
2023/08/16 06:58:29;;;;;;;;;;;;;;;21.52;44.97;95870.53;4994923;28;21602;-65
2023/08/16 07:00:55;;;;;;;;;;;;;;;21.64;43.56;95876.72;4992734;28;19929;-65
2023/08/16 07:03:20;;;;;;;;;;;;;;;21.31;42.97;95888.28;4995676;28;20347;-65
2023/08/16 07:05:45;;;;;;;;;;;;;;;21.48;44.02;95883.72;4987572;28;19932;-65
2023/08/16 07:08:11;;;;;;;;;;;;;;;21.68;43.56;95885.16;4992012;28;19948;-65
2023/08/16 07:10:36;;;;;;;;;;;;;;;21.84;44.61;95899.81;4985682;28;19961;-63
2023/08/16 07:13:02;;;;;;;;;;;;;;;21.85;44.52;95901.44;4994744;28;19991;-65
2023/08/16 07:15:28;;;;;;;;;;;;;;;21.93;42.67;95903.00;4989723;28;19951;-64
2023/08/16 07:17:53;;;;;;;;;;;;;;;22.13;42.99;95899.78;4995023;28;20358;-65
2023/08/16 07:20:18;;;;;;;;;;;;;;;22.26;43.82;95903.22;4991630;28;20342;-65
2023/08/16 07:22:43;;;;;;;;;;;;;;;22.48;41.45;95900.59;4991826;28;20058;-64
2023/08/16 07:25:10;;;;;;;;;;;;;;;22.63;40.97;95900.03;4992507;28;20296;-65
2023/08/16 07:27:35;;;;;;;;;;;;;;;22.51;41.22;95908.22;4991939;28;19921;-66
2023/08/16 07:30:00;;;;;;;;;;;;;;;22.60;42.24;95905.94;4990628;28;20571;-64
2023/08/16 07:32:26;;;;;;;;;;;;;;;22.78;41.20;95910.28;4992358;28;19925;-65
2023/08/16 07:34:51;;;;;;;;;;;;;;;22.95;40.64;95914.84;4988756;28;19952;-64
2023/08/16 07:37:17;;;;;;;;;;;;;;;22.95;40.54;95917.56;4990168;28;20004;-65
2023/08/16 07:39:42;;;;;;;;;;;;;;;22.92;40.95;95912.63;4974410;28;20383;-64
2023/08/16 07:42:07;;;;;;;;;;;;;;;23.00;40.29;95908.66;4975008;28;19937;-65
2023/08/16 07:44:33;;;;;;;;;;;;;;;23.38;42.13;95903.44;4973314;28;20194;-63
2023/08/16 07:47:00;;;;;;;;;;;;;;;23.49;39.98;95897.03;4974601;28;19922;-65
2023/08/16 07:49:25;;;;;;;;;;;;;;;23.54;41.79;95909.88;4970037;28;20572;-64
2023/08/16 07:51:50;;;;;;;;;;;;;;;23.50;40.20;95908.75;4969959;28;19944;-65
2023/08/16 07:54:15;;;;;;;;;;;;;;;23.68;41.45;95902.13;4977145;28;20018;-62
2023/08/16 07:56:41;;;;;;;;;;;;;;;23.64;40.77;95907.28;4971621;28;20513;-61
2023/08/16 07:59:06;;;;;;;;;;;;;;;23.58;39.17;95913.72;4977724;28;19925;-61
2023/08/16 08:01:32;;;;;;;;;;;;;;;23.41;40.88;95920.06;4972621;28;20024;-62
2023/08/16 08:03:57;;;;;;;;;;;;;;;23.72;39.62;95922.28;4972200;28;19926;-62
2023/08/16 08:06:22;;;;;;;;;;;;;;;23.97;40.73;95922.84;4982024;28;20395;-63
2023/08/16 08:08:48;;;;;;;;;;;;;;;24.02;39.92;95928.31;4977214;28;20036;-62
2023/08/16 08:11:14;;;;;;;;;;;;;;;24.07;39.74;95936.53;4972698;28;20035;-63
2023/08/16 08:13:39;;;;;;;;;;;;;;;24.20;40.19;95946.13;4969600;28;19930;-62
2023/08/16 08:16:04;;;;;;;;;;;;;;;24.12;38.66;95943.91;4972627;28;19988;-62
2023/08/16 08:18:30;;;;;;;;;;;;;;;24.19;39.02;95945.34;4970263;28;19925;-63
2023/08/16 08:20:55;;;;;;;;;;;;;;;24.55;39.30;95947.56;4970986;28;19976;-62
2023/08/16 08:23:21;;;;;;;;;;;;;;;24.38;38.36;95946.88;4993529;28;19948;-62
2023/08/16 08:25:46;;;;;;;;;;;;;;;24.53;37.94;95951.59;4994812;28;19926;-62
2023/08/16 08:28:12;;;;;;;;;;;;;;;24.58;38.22;95948.94;4983899;28;20369;-63
2023/08/16 08:30:37;;;;;;;;;;;;;;;24.75;38.39;95946.06;4995403;28;19929;-63
2023/08/16 08:33:03;;;;;;;;;;;;;;;24.79;38.94;95943.63;4987748;28;20271;-63
2023/08/16 08:35:28;;;;;;;;;;;;;;;24.83;38.69;95947.47;4977684;28;19969;-63
2023/08/16 08:37:53;;;;;;;;;;;;;;;24.77;38.87;95949.34;4978552;28;19956;-63
2023/08/16 08:40:19;;;;;;;;;;;;;;;24.83;38.14;95956.47;4982451;28;20075;-63
2023/08/16 08:42:46;;;;;;;;;;;;;;;24.75;38.50;95962.41;4982518;28;19930;-63
2023/08/16 08:45:12;;;;;;;;;;;;;;;24.80;37.84;95956.16;4977937;28;19929;-63
2023/08/16 08:47:38;;;;;;;;;;;;;;;24.90;38.00;95964.41;4966329;28;20437;-63
2023/08/16 08:50:04;;;;;;;;;;;;;;;24.89;37.15;95965.47;4969914;28;20181;-62
2023/08/16 08:52:29;;;;;;;;;;;;;;;24.95;37.11;95966.38;4974528;28;19976;-63
2023/08/16 08:54:54;;;;;;;;;;;;;;;24.96;37.97;95968.81;4981100;28;19936;-63
2023/08/16 08:57:20;;;;;;;;;;;;;;;25.08;37.64;95970.50;4974473;28;19934;-63
2023/08/16 08:59:49;;;;;;;;;;;;;;;25.05;37.55;95963.69;4970057;28;19928;-63
2023/08/16 09:02:14;;;;;;;;;;;;;;;25.42;38.04;95964.69;4973679;28;20250;-64
2023/08/16 09:04:39;;;;;;;;;;;;;;;25.50;35.84;95976.19;4971754;28;19922;-63
2023/08/16 09:07:05;;;;;;;;;;;;;;;25.53;36.01;95981.09;4991419;28;19921;-63
2023/08/16 09:09:30;;;;;;;;;;;;;;;25.33;35.82;95982.63;4972098;28;20024;-63
2023/08/16 09:11:55;;;;;;;;;;;;;;;25.20;37.17;95984.75;4976247;28;20406;-63
2023/08/16 09:14:21;;;;;;;;;;;;;;;25.27;36.77;95978.22;4973986;28;19961;-63
2023/08/16 09:16:46;;;;;;;;;;;;;;;25.49;36.02;95972.63;4977056;28;20350;-64
2023/08/16 09:19:12;;;;;;;;;;;;;;;25.62;36.24;95968.59;4971055;28;19934;-63
2023/08/16 09:21:38;;;;;;;;;;;;;;;25.86;37.64;95968.13;4973083;28;20444;-63
2023/08/16 09:24:05;;;;;;;;;;;;;;;25.50;36.34;95971.56;4975442;28;20214;-63
2023/08/16 09:26:31;;;;;;;;;;;;;;;25.59;36.73;95978.13;4975403;28;19921;-63
2023/08/16 09:28:59;;;;;;;;;;;;;;;26.03;35.56;95972.56;4970131;28;19976;-64
2023/08/16 09:31:31;;;;;;;;;;;;;;;26.02;35.16;95968.19;4977338;28;19945;-62
2023/08/16 09:33:56;;;;;;;;;;;;;;;25.57;36.14;95971.31;4977603;28;19993;-63
2023/08/16 09:36:21;;;;;;;;;;;;;;;25.72;36.21;95973.25;4993990;28;20432;-63
2023/08/16 09:38:47;;;;;;;;;;;;;;;25.70;35.25;95965.34;4974737;28;19926;-63
2023/08/16 09:41:18;;;;;;;;;;;;;;;25.72;36.40;95968.63;4978126;28;19932;-63
2023/08/16 09:43:44;;;;;;;;;;;;;;;25.25;37.75;95966.78;4991557;28;20306;-61
2023/08/16 09:46:09;;;;;;;;;;;;;;;25.42;36.65;95959.22;4992708;28;19922;-63
2023/08/16 09:48:35;;;;;;;;;;;;;;;25.54;37.05;95959.03;4992591;28;19975;-62
2023/08/16 09:51:03;;;;;;;;;;;;;;;25.78;37.18;95955.00;4992786;28;20000;-62
2023/08/16 09:53:32;;;;;;;;;;;;;;;25.85;36.27;95956.41;4994361;28;19929;-63
2023/08/16 09:55:58;;;;;;;;;;;;;;;26.16;35.06;95957.56;4993307;28;20059;-63
2023/08/16 09:58:24;;;;;;;;;;;;;;;26.23;36.16;95958.94;4994940;28;19925;-62
2023/08/16 10:00:49;;;;;;;;;;;;;;;26.27;34.53;95953.75;4992859;28;19995;-62
2023/08/16 10:03:14;;;;;;;;;;;;;;;26.62;33.98;95945.88;4991785;28;19917;-62
2023/08/16 10:05:40;;;;;;;;;;;;;;;27.36;34.10;95956.34;4993096;28;19956;-65
2023/08/16 10:08:05;;;;;;;;;;;;;;;27.47;33.86;95946.22;4995448;28;20295;-65
2023/08/16 10:10:31;;;;;;;;;;;;;;;28.21;32.35;95942.00;4995287;28;20431;-65
2023/08/16 10:12:56;;;;;;;;;;;;;;;28.28;32.55;95944.44;4992345;28;19922;-65
2023/08/16 10:15:22;;;;;;;;;;;;;;;28.45;32.78;95935.78;4990021;28;19929;-65
2023/08/16 10:17:47;;;;;;;;;;;;;;;28.42;31.59;95941.84;4993033;28;19932;-65
2023/08/16 10:20:19;;;;;;;;;;;;;;;28.19;31.38;95941.47;4994066;28;19917;-65
2023/08/16 10:22:44;;;;;;;;;;;;;;;28.14;33.16;95944.22;4988129;28;19972;-64
2023/08/16 10:25:17;;;;;;;;;;;;;;;28.49;32.34;95939.59;4985674;28;20362;-63
2023/08/16 10:27:43;;;;;;;;;;;;;;;28.63;32.18;95942.47;4985787;28;20418;-63
2023/08/16 10:30:10;;;;;;;;;;;;;;;28.61;31.69;95941.94;4981618;28;19926;-62
2023/08/16 10:32:36;;;;;;;;;;;;;;;28.91;31.85;95944.69;4989648;28;20459;-63
2023/08/16 10:35:01;;;;;;;;;;;;;;;29.26;32.00;95948.16;4991190;28;19956;-62
2023/08/16 10:37:26;;;;;;;;;;;;;;;29.53;31.73;95941.25;4988234;28;19961;-63
2023/08/16 10:39:52;;;;;;;;;;;;;;;29.66;30.92;95949.88;4974452;28;20194;-63
2023/08/16 10:42:17;;;;;;;;;;;;;;;29.54;30.76;95956.59;4987940;28;19923;-62
2023/08/16 10:44:51;;;;;;;;;;;;;;;30.02;29.32;95954.91;4992997;28;19932;-62
2023/08/16 10:47:26;;;;;;;;;;;;;;;29.92;29.19;95955.03;5008536;28;19995;-63
2023/08/16 10:49:51;;;;;;;;;;;;;;;30.13;28.36;95943.75;4979962;28;19929;-63
2023/08/16 10:52:25;;;;;;;;;;;;;;;30.30;29.35;95955.06;4968229;28;19937;-64
2023/08/16 10:54:52;;;;;;;;;;;;;;;30.75;28.70;95944.72;4968291;28;19934;-63
2023/08/16 10:57:22;;;;;;;;;;;;;;;30.57;29.11;95947.19;4975251;28;19921;-63
2023/08/16 10:59:48;;;;;;;;;;;;;;;30.49;28.11;95943.22;4958499;28;20481;-63
2023/08/16 11:02:17;;;;;;;;;;;;;;;30.36;28.03;95943.97;4979057;28;19930;-63
2023/08/16 11:04:43;;;;;;;;;;;;;;;29.99;27.77;95939.03;4977257;28;20244;-63
2023/08/16 11:07:09;;;;;;;;;;;;;;;29.72;29.61;95940.50;4995811;28;20031;-64
2023/08/16 11:09:37;;;;;;;;;;;;;;;30.06;29.21;95938.66;5000780;28;19925;-64
2023/08/16 11:12:03;;;;;;;;;;;;;;;29.92;28.46;95944.06;4996854;28;19992;-65
2023/08/16 11:14:28;;;;;;;;;;;;;;;29.73;29.15;95938.59;4980104;28;20146;-63
2023/08/16 11:16:54;;;;;;;;;;;;;;;29.72;29.27;95936.94;4975041;28;20552;-63
2023/08/16 11:19:21;;;;;;;;;;;;;;;30.10;28.75;95933.38;4971888;28;19917;-63
2023/08/16 11:21:47;;;;;;;;;;;;;;;30.39;28.20;95940.63;4968022;28;19930;-63
2023/08/16 11:24:12;;;;;;;;;;;;;;;30.32;28.96;95933.59;4972166;28;20358;-63
2023/08/16 11:26:38;;;;;;;;;;;;;;;30.32;28.39;95928.09;4990746;28;19961;-62
2023/08/16 11:29:03;;;;;;;;;;;;;;;30.06;28.64;95930.41;4998108;28;20365;-64
2023/08/16 11:31:28;;;;;;;;;;;;;;;29.97;29.05;95932.22;4998339;28;20590;-63
2023/08/16 11:33:54;;;;;;;;;;;;;;;30.27;28.75;95930.94;4994987;28;20023;-63
2023/08/16 11:36:19;;;;;;;;;;;;;;;30.27;27.57;95933.69;4997793;28;19988;-63
2023/08/16 11:38:47;;;;;;;;;;;;;;;29.74;28.64;95934.72;4997331;28;19940;-62
2023/08/16 11:41:18;;;;;;;;;;;;;;;30.01;28.59;95930.50;4997707;28;20216;-63
2023/08/16 11:43:43;;;;;;;;;;;;;;;30.51;28.23;95915.44;5003245;28;19917;-62
2023/08/16 11:46:08;;;;;;;;;;;;;;;30.18;28.40;95930.78;4984038;28;20420;-63
2023/08/16 11:48:34;;;;;;;;;;;;;;;29.99;28.37;95921.72;4975117;28;20400;-63
2023/08/16 11:50:59;;;;;;;;;;;;;;;30.79;26.60;95910.84;4977059;28;19922;-64
2023/08/16 11:53:34;;;;;;;;;;;;;;;31.16;26.38;95918.44;4979048;28;20552;-62
2023/08/16 11:56:04;;;;;;;;;;;;;;;31.19;26.76;95924.13;4998632;28;20445;-63
2023/08/16 11:58:29;;;;;;;;;;;;;;;31.53;26.88;95923.97;4996819;28;19988;-63
2023/08/16 12:01:04;;;;;;;;;;;;;;;31.84;27.07;95928.84;4996671;28;19926;-62
2023/08/16 12:03:33;;;;;;;;;;;;;;;32.03;25.28;95934.19;4996094;28;20052;-62
2023/08/16 12:06:03;;;;;;;;;;;;;;;31.99;25.83;95933.19;4994620;28;20548;-61
2023/08/16 12:08:28;;;;;;;;;;;;;;;31.04;25.60;95927.97;4997955;28;20136;-62
2023/08/16 12:10:54;;;;;;;;;;;;;;;31.28;25.64;95924.22;4997229;28;19921;-62
2023/08/16 12:13:19;;;;;;;;;;;;;;;31.40;26.66;95929.19;4992124;28;19936;-63
2023/08/16 12:15:45;;;;;;;;;;;;;;;32.12;25.82;95915.03;4996012;28;20553;-62
2023/08/16 12:18:10;;;;;;;;;;;;;;;31.69;25.48;95919.00;4991247;28;20022;-62
2023/08/16 12:20:36;;;;;;;;;;;;;;;32.10;25.72;95915.34;4987621;28;19927;-62
2023/08/16 12:23:02;;;;;;;;;;;;;;;32.55;25.61;95915.66;4974232;28;19925;-62
2023/08/16 12:25:27;;;;;;;;;;;;;;;30.87;26.12;95914.00;4981773;28;19925;-62
2023/08/16 12:27:53;;;;;;;;;;;;;;;31.17;26.11;95909.06;4992849;28;20366;-62
2023/08/16 12:30:18;;;;;;;;;;;;;;;29.96;27.19;95914.91;4997949;28;19926;-62
2023/08/16 12:32:43;;;;;;;;;;;;;;;31.65;25.97;95909.75;4995381;28;20104;-62
2023/08/16 12:35:08;;;;;;;;;;;;;;;32.10;25.36;95898.81;4997848;28;19933;-62
2023/08/16 12:37:34;;;;;;;;;;;;;;;31.31;25.54;95895.31;4992077;28;19926;-62
2023/08/16 12:39:59;;;;;;;;;;;;;;;31.21;25.29;95899.09;4995196;28;19921;-62